Time;durP1;ratioP1;P1;durP2;ratioP2;P2;SDS_P1;SDS_P2;PMS_P1;PMS_P2;Temp;Humidity;BMP_temperature;BMP_pressure;BME280_temperature;BME280_humidity;BME280_pressure;Samples;Min_cycle;Max_cycle;Signal;HPM_P1;HPM_P2
2023/06/21 00:00:28;;;;;;;11.93;10.38;;;23.80;96.70;;;;;;5033582;28;20037;-79
2023/06/21 00:02:54;;;;;;;8.57;7.43;;;23.70;96.80;;;;;;5034637;28;20030;-79
2023/06/21 00:05:19;;;;;;;9.55;8.63;;;23.60;96.80;;;;;;5034985;28;20188;-79
2023/06/21 00:07:47;;;;;;;8.75;7.82;;;23.70;96.70;;;;;;5034546;28;20057;-79
2023/06/21 00:10:13;;;;;;;10.27;9.27;;;23.70;96.70;;;;;;5034460;28;20029;-79
2023/06/21 00:12:39;;;;;;;12.13;10.40;;;23.70;96.70;;;;;;5034089;28;20136;-79
2023/06/21 00:15:05;;;;;;;9.48;8.18;;;23.70;96.50;;;;;;5032908;28;20097;-78
2023/06/21 00:17:31;;;;;;;9.20;7.82;;;23.60;96.50;;;;;;5034308;28;20216;-79
2023/06/21 00:19:56;;;;;;;7.40;6.43;;;23.60;96.40;;;;;;5033546;28;20526;-79
2023/06/21 00:22:22;;;;;;;6.85;6.18;;;23.50;96.30;;;;;;5034577;28;20069;-80
2023/06/21 00:24:49;;;;;;;10.00;6.75;;;23.50;96.30;;;;;;5032737;28;20104;-79
2023/06/21 00:27:18;;;;;;;6.80;6.20;;;23.50;96.10;;;;;;5032967;28;20049;-79
2023/06/21 00:29:43;;;;;;;7.38;6.32;;;23.30;96.10;;;;;;5034382;28;20037;-79
2023/06/21 00:32:09;;;;;;;6.45;5.53;;;23.20;96.20;;;;;;5033977;28;20042;-79
2023/06/21 00:34:35;;;;;;;6.38;5.78;;;23.10;96.30;;;;;;5016544;28;20104;-79
2023/06/21 00:37:04;;;;;;;5.70;4.95;;;23.10;96.40;;;;;;5032728;28;20053;-79
2023/06/21 00:39:30;;;;;;;7.03;6.32;;;23.10;96.40;;;;;;5034015;28;20056;-79
2023/06/21 00:41:56;;;;;;;10.20;6.55;;;23.10;96.40;;;;;;5032273;28;20110;-80
2023/06/21 00:44:22;;;;;;;8.00;6.70;;;23.00;96.40;;;;;;5033935;28;20033;-79
2023/06/21 00:46:49;;;;;;;6.82;6.20;;;23.00;96.50;;;;;;5016354;28;20034;-79
2023/06/21 00:49:15;;;;;;;8.88;7.15;;;22.90;96.60;;;;;;5032703;28;20057;-79
2023/06/21 00:51:42;;;;;;;8.18;6.53;;;22.80;96.70;;;;;;5033706;28;20049;-79
2023/06/21 00:54:15;;;;;;;7.78;5.55;;;22.80;96.80;;;;;;5032544;28;20029;-80
2023/06/21 00:56:42;;;;;;;6.60;5.95;;;22.70;97.00;;;;;;5032382;28;20107;-79
2023/06/21 00:59:09;;;;;;;6.80;6.10;;;22.60;97.10;;;;;;5032600;28;20509;-79
2023/06/21 01:01:36;;;;;;;6.53;5.75;;;22.70;97.10;;;;;;5033922;28;20034;-79
2023/06/21 01:04:02;;;;;;;6.55;5.93;;;22.60;97.10;;;;;;5032371;28;20479;-80
2023/06/21 01:06:35;;;;;;;6.85;5.80;;;22.70;97.00;;;;;;5033022;28;20120;-79
2023/06/21 01:09:22;;;;;;;8.45;6.15;;;22.60;97.20;;;;;;5033411;28;20053;-80
2023/06/21 01:11:57;;;;;;;6.72;6.03;;;22.60;97.30;;;;;;5032840;28;20421;-80
2023/06/21 01:14:34;;;;;;;6.82;6.10;;;22.60;97.20;;;;;;5033324;28;20489;-79
2023/06/21 01:17:03;;;;;;;6.90;6.20;;;22.60;97.30;;;;;;5033641;28;20056;-79
2023/06/21 01:19:50;;;;;;;6.88;5.68;;;22.50;97.20;;;;;;5033934;28;20046;-79
2023/06/21 01:22:45;;;;;;;7.13;6.43;;;22.50;97.30;;;;;;5033111;28;20370;-79
2023/06/21 01:25:20;;;;;;;6.97;6.28;;;22.60;97.40;;;;;;5032572;28;20030;-79
2023/06/21 01:28:07;;;;;;;6.93;6.22;;;22.60;97.40;;;;;;5033015;28;20353;-80
2023/06/21 01:30:34;;;;;;;8.32;6.40;;;22.60;97.50;;;;;;5032432;28;20041;-80
2023/06/21 01:33:00;;;;;;;9.07;7.60;;;22.60;97.50;;;;;;5033156;28;19917;-79
2023/06/21 01:35:26;;;;;;;8.55;7.22;;;22.60;97.50;;;;;;5033451;28;20029;-79
2023/06/21 01:37:52;;;;;;;8.15;7.38;;;22.50;97.50;;;;;;5032671;28;20032;-79
2023/06/21 01:40:19;;;;;;;10.45;8.05;;;22.40;97.70;;;;;;5033551;28;20204;-79
2023/06/21 01:42:45;;;;;;;9.65;8.15;;;22.30;97.90;;;;;;5033658;28;20038;-79
2023/06/21 01:45:11;;;;;;;8.73;7.82;;;22.30;98.10;;;;;;5033574;28;20036;-79
2023/06/21 01:47:39;;;;;;;9.43;7.75;;;22.30;98.10;;;;;;5033617;28;20028;-79
2023/06/21 01:50:08;;;;;;;8.82;7.93;;;22.20;98.20;;;;;;5033890;28;20037;-78
2023/06/21 01:52:34;;;;;;;8.95;8.05;;;22.30;98.30;;;;;;5033805;28;20045;-79
2023/06/21 01:55:01;;;;;;;12.02;9.82;;;22.20;98.30;;;;;;5036426;28;20081;-79
2023/06/21 01:57:28;;;;;;;10.55;8.50;;;22.30;98.40;;;;;;5037325;28;20037;-79
2023/06/21 01:59:54;;;;;;;10.75;9.65;;;22.20;98.50;;;;;;5036999;28;20450;-79
2023/06/21 02:02:22;;;;;;;10.48;9.48;;;22.20;98.50;;;;;;5036842;28;20033;-79
2023/06/21 02:04:49;;;;;;;11.77;10.52;;;22.20;98.50;;;;;;5036835;28;20079;-79
2023/06/21 02:07:16;;;;;;;11.82;10.23;;;22.20;98.60;;;;;;5036792;28;20045;-79
2023/06/21 02:09:46;;;;;;;13.10;11.32;;;22.20;98.70;;;;;;5035382;28;20164;-79
2023/06/21 02:12:11;;;;;;;13.88;12.27;;;22.20;98.80;;;;;;5035186;28;20478;-79
2023/06/21 02:14:38;;;;;;;12.05;10.93;;;22.20;98.70;;;;;;5036672;28;20034;-79
2023/06/21 02:17:04;;;;;;;13.52;11.50;;;22.10;98.70;;;;;;5035344;28;20030;-79
2023/06/21 02:19:29;;;;;;;14.30;12.80;;;22.20;98.80;;;;;;5019228;28;20490;-79
2023/06/21 02:21:56;;;;;;;12.80;11.48;;;22.20;98.90;;;;;;5035653;28;20040;-79
2023/06/21 02:24:22;;;;;;;15.77;13.43;;;22.10;99.20;;;;;;5018913;28;20036;-79
2023/06/21 02:26:47;;;;;;;15.65;14.05;;;22.10;99.10;;;;;;5037000;28;20021;-78
2023/06/21 02:29:13;;;;;;;15.52;14.02;;;22.10;99.10;;;;;;5035223;28;20037;-79
2023/06/21 02:31:39;;;;;;;15.80;14.23;;;22.10;99.20;;;;;;5035977;28;20394;-79
2023/06/21 02:34:04;;;;;;;22.15;15.80;;;22.10;99.30;;;;;;5035354;28;20029;-79
2023/06/21 02:36:30;;;;;;;18.50;15.88;;;22.00;99.40;;;;;;5036321;28;20057;-79
2023/06/21 02:38:56;;;;;;;18.30;14.60;;;21.90;99.40;;;;;;5036815;28;20408;-79
2023/06/21 02:41:21;;;;;;;15.63;13.93;;;21.80;99.60;;;;;;5035897;28;20469;-79
2023/06/21 02:43:48;;;;;;;16.92;15.07;;;21.80;99.70;;;;;;5018291;28;20068;-79
2023/06/21 02:46:14;;;;;;;16.52;14.65;;;21.80;99.80;;;;;;5018431;28;20056;-79
2023/06/21 02:48:39;;;;;;;14.85;13.35;;;21.80;99.90;;;;;;5018643;28;20061;-79
2023/06/21 02:51:05;;;;;;;15.82;14.32;;;21.80;99.90;;;;;;5035791;28;20034;-79
2023/06/21 02:53:31;;;;;;;18.02;16.17;;;21.90;99.90;;;;;;5034707;28;20025;-79
2023/06/21 02:55:56;;;;;;;20.45;17.60;;;21.80;99.90;;;;;;5034452;28;20414;-79
2023/06/21 02:58:22;;;;;;;19.55;17.55;;;21.80;99.90;;;;;;5035561;28;20378;-79
2023/06/21 03:00:48;;;;;;;19.00;15.73;;;21.80;99.90;;;;;;5035871;28;20116;-78
2023/06/21 03:03:13;;;;;;;17.75;15.85;;;21.80;99.90;;;;;;5034573;28;20029;-79
2023/06/21 03:05:39;;;;;;;21.48;17.02;;;21.80;99.90;;;;;;5035068;28;20032;-79
2023/06/21 03:08:07;;;;;;;18.65;16.65;;;21.90;99.90;;;;;;5036892;28;20025;-79
2023/06/21 03:10:33;;;;;;;22.52;18.85;;;21.90;99.90;;;;;;5035648;28;20029;-79
2023/06/21 03:12:59;;;;;;;19.88;16.98;;;21.90;99.90;;;;;;5034243;28;20430;-79
2023/06/21 03:15:25;;;;;;;18.60;16.70;;;21.80;99.90;;;;;;5017765;28;20120;-79
2023/06/21 03:17:50;;;;;;;12.32;10.50;;;21.80;99.90;;;;;;5036731;28;20136;-79
2023/06/21 03:20:16;;;;;;;18.00;16.15;;;21.80;99.90;;;;;;5034518;28;20026;-79
2023/06/21 03:22:43;;;;;;;21.17;17.75;;;21.90;99.90;;;;;;5035302;28;20454;-79
2023/06/21 03:25:15;;;;;;;19.70;17.67;;;21.90;99.90;;;;;;5035067;28;20462;-79
2023/06/21 03:27:41;;;;;;;20.05;17.65;;;21.90;99.90;;;;;;5034033;28;20032;-79
2023/06/21 03:30:12;;;;;;;19.75;17.75;;;21.90;99.90;;;;;;5034997;28;20121;-79
2023/06/21 03:32:48;;;;;;;18.92;16.38;;;21.80;99.90;;;;;;5035449;28;20042;-79
2023/06/21 03:40:24;;;;;;;17.90;15.68;;;21.90;99.90;;;;;;5548925;23;20061;-80
2023/06/21 03:42:50;;;;;;;22.02;17.98;;;22.00;99.90;;;;;;4987189;28;20370;-80
2023/06/21 03:45:15;;;;;;;18.77;16.52;;;22.00;99.90;;;;;;5014950;28;20029;-80
2023/06/21 03:47:42;;;;;;;17.40;15.50;;;21.90;99.90;;;;;;5014854;28;20030;-80
2023/06/21 03:50:08;;;;;;;18.38;16.38;;;22.00;99.90;;;;;;4997647;28;20042;-80
2023/06/21 03:52:34;;;;;;;18.17;16.25;;;22.00;99.90;;;;;;5024200;28;20116;-80
2023/06/21 03:55:01;;;;;;;18.10;16.23;;;21.90;99.90;;;;;;5034451;28;20060;-81
2023/06/21 03:57:27;;;;;;;17.95;15.77;;;22.00;99.90;;;;;;5033135;28;20408;-81
2023/06/21 03:59:52;;;;;;;17.30;15.50;;;21.90;99.90;;;;;;5033455;28;20033;-81
2023/06/21 04:02:21;;;;;;;19.42;17.35;;;21.90;99.90;;;;;;5034316;28;20037;-81
2023/06/21 04:04:49;;;;;;;17.08;15.38;;;21.90;99.90;;;;;;5034500;28;20108;-79
2023/06/21 04:07:19;;;;;;;20.95;16.58;;;21.90;99.90;;;;;;5033911;28;20025;-80
2023/06/21 04:09:45;;;;;;;16.30;14.60;;;21.90;99.90;;;;;;5015742;28;20160;-80
2023/06/21 04:12:11;;;;;;;16.80;15.05;;;21.90;99.90;;;;;;5014040;28;20042;-82
2023/06/21 04:14:37;;;;;;;16.20;14.55;;;21.90;99.90;;;;;;5013180;28;20026;-81
2023/06/21 04:17:03;;;;;;;20.42;18.23;;;22.00;99.90;;;;;;5013983;28;20033;-82
2023/06/21 04:19:28;;;;;;;17.63;15.70;;;22.00;99.90;;;;;;5014644;28;20101;-81
2023/06/21 04:21:54;;;;;;;19.15;17.20;;;22.00;99.90;;;;;;4997178;28;20044;-81
2023/06/21 04:24:19;;;;;;;21.25;19.02;;;22.00;99.90;;;;;;5013776;28;20029;-82
2023/06/21 04:26:45;;;;;;;18.30;16.30;;;22.00;99.90;;;;;;5014544;28;20030;-82
2023/06/21 04:29:11;;;;;;;23.50;20.95;;;22.10;99.90;;;;;;4996776;28;20030;-81
2023/06/21 04:31:39;;;;;;;22.08;19.45;;;22.00;99.90;;;;;;5014135;28;20041;-82
2023/06/21 04:34:05;;;;;;;21.67;18.75;;;21.90;99.90;;;;;;5012749;28;20029;-82
2023/06/21 04:36:31;;;;;;;23.02;19.42;;;21.80;99.90;;;;;;5013709;28;20076;-82
2023/06/21 04:38:56;;;;;;;23.52;20.20;;;21.70;99.90;;;;;;5014265;28;20389;-82
2023/06/21 04:41:22;;;;;;;22.77;20.35;;;21.70;99.90;;;;;;5012593;28;20144;-82
2023/06/21 04:43:48;;;;;;;21.98;19.70;;;21.70;99.90;;;;;;4996810;28;20025;-82
2023/06/21 04:46:17;;;;;;;26.20;20.33;;;21.70;99.90;;;;;;5014841;28;20030;-80
2023/06/21 04:48:44;;;;;;;23.80;20.30;;;21.60;99.90;;;;;;5033637;28;20025;-82
2023/06/21 04:51:15;;;;;;;19.92;17.83;;;21.60;99.90;;;;;;5031934;28;20042;-81
2023/06/21 04:53:46;;;;;;;25.02;22.33;;;21.60;99.90;;;;;;5016739;28;20034;-82
2023/06/21 04:56:12;;;;;;;29.27;22.05;;;21.60;99.90;;;;;;5015805;28;20030;-82
2023/06/21 04:58:39;;;;;;;27.83;22.75;;;21.60;99.90;;;;;;5032041;28;20519;-81
2023/06/21 05:01:08;;;;;;;30.98;25.17;;;21.60;99.90;;;;;;5032493;28;20034;-81
2023/06/21 05:03:33;;;;;;;33.15;25.45;;;21.60;99.90;;;;;;5016490;28;20029;-81
2023/06/21 05:06:00;;;;;;;30.23;23.52;;;21.60;99.90;;;;;;5029835;28;20032;-83
2023/06/21 05:08:25;;;;;;;27.20;22.23;;;21.60;99.90;;;;;;5008465;28;20148;-77
2023/06/21 05:10:51;;;;;;;30.70;25.75;;;21.60;99.90;;;;;;5018264;28;20034;-77
2023/06/21 05:13:17;;;;;;;25.13;21.02;;;21.60;99.90;;;;;;5012734;28;20088;-77
2023/06/21 05:15:43;;;;;;;25.65;20.27;;;21.60;99.90;;;;;;5023443;28;20085;-77
2023/06/21 05:18:09;;;;;;;24.92;20.27;;;21.70;99.90;;;;;;4996036;28;20026;-77
2023/06/21 05:20:35;;;;;;;34.53;27.75;;;21.70;99.90;;;;;;4995835;28;20084;-77
2023/06/21 05:23:00;;;;;;;32.70;27.38;;;21.70;99.90;;;;;;5012325;28;20038;-77
2023/06/21 05:25:26;;;;;;;31.23;26.45;;;21.70;99.90;;;;;;5013935;28;20030;-78
2023/06/21 05:27:52;;;;;;;33.35;27.95;;;21.70;99.90;;;;;;5015623;28;20030;-77
2023/06/21 05:30:18;;;;;;;31.17;27.38;;;21.70;99.90;;;;;;5035926;28;20060;-80
2023/06/21 05:32:44;;;;;;;30.65;25.63;;;21.70;99.90;;;;;;5019582;28;20083;-77
2023/06/21 05:35:10;;;;;;;32.75;27.23;;;21.80;99.90;;;;;;5035446;28;20044;-82
2023/06/21 05:37:36;;;;;;;31.92;27.20;;;21.80;99.90;;;;;;5034641;28;20033;-83
2023/06/21 05:40:03;;;;;;;33.90;29.17;;;21.90;99.90;;;;;;5034887;28;20103;-83
2023/06/21 05:42:29;;;;;;;31.55;25.55;;;21.90;99.90;;;;;;5035132;28;20030;-83
2023/06/21 05:44:55;;;;;;;27.67;23.75;;;21.90;99.90;;;;;;5025517;28;20033;-83
2023/06/21 05:47:20;;;;;;;27.73;23.92;;;21.90;99.90;;;;;;5035223;28;20033;-83
2023/06/21 05:49:48;;;;;;;28.40;25.40;;;21.90;99.90;;;;;;5025231;28;20049;-82
2023/06/21 05:52:15;;;;;;;25.88;21.20;;;21.90;99.90;;;;;;5001359;28;20042;-83
2023/06/21 05:54:43;;;;;;;29.20;25.90;;;22.00;99.90;;;;;;5035605;28;20021;-76
2023/06/21 05:57:09;;;;;;;30.40;24.95;;;22.00;99.90;;;;;;5035254;28;20032;-78
2023/06/21 05:59:35;;;;;;;32.13;27.52;;;22.10;99.90;;;;;;5017163;28;20029;-78
2023/06/21 06:02:00;;;;;;;12.57;11.23;;;22.10;99.90;;;;;;5024564;28;20567;-71
2023/06/21 06:04:26;;;;;;;16.27;14.30;;;22.10;99.90;;;;;;5034796;28;20484;-70
2023/06/21 06:06:52;;;;;;;16.45;14.70;;;22.30;99.90;;;;;;5034915;28;20104;-70
2023/06/21 06:09:17;;;;;;;17.48;15.57;;;22.60;99.90;;;;;;5009303;28;20081;-71
2023/06/21 06:11:43;;;;;;;19.80;17.70;;;22.70;99.80;;;;;;5015764;28;20474;-71
2023/06/21 06:14:10;;;;;;;16.13;14.45;;;22.90;99.50;;;;;;5016232;28;20446;-71
2023/06/21 06:16:36;;;;;;;16.63;14.93;;;23.10;99.20;;;;;;5014609;28;20437;-71
2023/06/21 06:19:02;;;;;;;20.00;17.85;;;23.30;98.80;;;;;;5017391;28;20038;-70
2023/06/21 06:21:28;;;;;;;19.58;15.55;;;23.50;98.30;;;;;;5035456;28;20461;-70
2023/06/21 06:23:54;;;;;;;15.05;13.60;;;23.60;98.20;;;;;;5034702;28;20078;-70
2023/06/21 06:26:24;;;;;;;17.58;15.80;;;23.70;98.00;;;;;;5017906;28;20477;-70
2023/06/21 06:28:51;;;;;;;16.58;14.88;;;23.70;97.70;;;;;;5035566;28;20025;-70
2023/06/21 06:31:22;;;;;;;16.23;14.43;;;23.80;97.40;;;;;;5036073;28;20034;-71
2023/06/21 06:33:48;;;;;;;17.95;16.02;;;23.90;97.30;;;;;;5035770;28;20033;-71
2023/06/21 06:36:14;;;;;;;15.52;14.02;;;23.90;97.10;;;;;;5035062;28;20465;-72
2023/06/21 06:38:40;;;;;;;21.10;19.00;;;24.00;96.90;;;;;;5035424;28;20029;-79
2023/06/21 06:41:06;;;;;;;21.38;19.13;;;24.00;96.90;;;;;;5033365;28;20099;-81
2023/06/21 06:43:34;;;;;;;20.40;18.27;;;24.00;96.90;;;;;;5035250;28;20512;-81
2023/06/21 06:46:00;;;;;;;20.77;18.65;;;23.90;96.80;;;;;;5034573;28;20043;-79
2023/06/21 06:48:26;;;;;;;22.23;20.08;;;23.90;96.80;;;;;;5028529;28;20029;-81
2023/06/21 06:50:52;;;;;;;21.40;18.95;;;23.80;96.70;;;;;;5023524;28;20030;-79
2023/06/21 06:53:18;;;;;;;27.63;24.95;;;23.80;96.80;;;;;;5007492;28;20032;-77
2023/06/21 06:55:44;;;;;;;28.70;25.98;;;23.80;96.70;;;;;;4988825;28;20032;-80
2023/06/21 06:58:10;;;;;;;29.25;26.35;;;23.80;96.60;;;;;;5033934;28;20104;-80
2023/06/21 07:00:36;;;;;;;30.67;26.67;;;23.80;96.70;;;;;;5034686;28;20029;-79
2023/06/21 07:03:01;;;;;;;28.77;25.85;;;23.60;96.80;;;;;;5035955;28;20029;-80
2023/06/21 07:05:27;;;;;;;23.83;21.50;;;23.60;97.00;;;;;;5035474;28;20034;-80
2023/06/21 07:07:54;;;;;;;30.33;27.23;;;23.60;97.10;;;;;;5034597;28;20381;-84
2023/06/21 07:10:20;;;;;;;30.08;27.00;;;23.60;96.70;;;;;;5033558;28;20621;-83
2023/06/21 07:12:46;;;;;;;29.23;26.33;;;23.50;96.80;;;;;;5000578;28;20132;-83
2023/06/21 07:15:12;;;;;;;35.45;31.75;;;23.30;96.90;;;;;;5034615;28;20104;-83
2023/06/21 07:17:37;;;;;;;34.78;31.35;;;23.20;97.00;;;;;;5013764;28;20030;-81
2023/06/21 07:20:06;;;;;;;37.33;33.33;;;23.10;97.10;;;;;;5021175;28;20134;-82
2023/06/21 07:22:32;;;;;;;32.42;29.40;;;23.00;97.30;;;;;;5024087;28;20307;-82
2023/06/21 07:24:58;;;;;;;34.63;31.02;;;23.00;97.50;;;;;;5023343;28;20022;-82
2023/06/21 07:27:26;;;;;;;37.42;33.60;;;23.10;97.80;;;;;;5023360;28;20033;-82
2023/06/21 07:29:52;;;;;;;37.22;33.33;;;23.10;97.50;;;;;;5025030;28;20029;-82
2023/06/21 07:32:18;;;;;;;31.75;28.50;;;23.10;97.40;;;;;;5022968;28;20038;-82
2023/06/21 07:34:43;;;;;;;37.45;33.63;;;23.10;97.50;;;;;;5030755;28;20037;-80
2023/06/21 07:37:09;;;;;;;36.47;32.78;;;23.20;97.60;;;;;;5032909;28;20038;-82
2023/06/21 07:39:35;;;;;;;35.88;32.35;;;23.20;97.40;;;;;;5028180;28;20342;-82
2023/06/21 07:42:04;;;;;;;31.80;28.83;;;23.20;97.50;;;;;;5023450;28;20062;-81
2023/06/21 07:44:33;;;;;;;36.47;32.88;;;23.20;97.50;;;;;;4982440;28;20535;-81
2023/06/21 07:46:59;;;;;;;38.63;34.53;;;23.30;97.40;;;;;;5013096;28;20030;-79
2023/06/21 07:49:24;;;;;;;34.47;31.02;;;23.40;97.30;;;;;;5014077;28;20056;-79
2023/06/21 07:51:50;;;;;;;37.90;34.10;;;23.40;97.10;;;;;;5014004;28;20045;-79
2023/06/21 07:54:16;;;;;;;36.15;32.58;;;23.30;97.00;;;;;;5013234;28;20037;-84
2023/06/21 07:56:42;;;;;;;36.67;33.03;;;23.40;97.00;;;;;;5026169;28;20042;-83
2023/06/21 07:59:08;;;;;;;36.55;32.78;;;23.40;97.10;;;;;;5033947;28;20065;-82
2023/06/21 08:01:34;;;;;;;37.63;33.90;;;23.60;97.00;;;;;;5007540;28;20041;-83
2023/06/21 08:04:00;;;;;;;35.92;32.42;;;23.70;96.50;;;;;;5034595;28;20044;-83
2023/06/21 08:06:26;;;;;;;32.90;29.70;;;23.80;96.20;;;;;;5033414;28;20377;-82
2023/06/21 08:08:52;;;;;;;33.45;30.15;;;23.90;95.90;;;;;;5007209;28;20036;-81
2023/06/21 08:11:18;;;;;;;32.88;29.52;;;24.00;95.90;;;;;;5014031;28;20046;-81
2023/06/21 08:13:44;;;;;;;29.60;26.60;;;24.10;95.90;;;;;;5012988;28;20053;-82
2023/06/21 08:16:10;;;;;;;33.05;29.55;;;24.20;95.90;;;;;;5012361;28;20481;-82
2023/06/21 08:18:36;;;;;;;30.52;27.33;;;24.40;96.70;;;;;;5012581;28;20025;-83
2023/06/21 08:21:03;;;;;;;31.27;27.20;;;24.50;95.90;;;;;;5021353;28;20030;-82
2023/06/21 08:23:29;;;;;;;29.33;26.45;;;24.60;95.50;;;;;;5032580;28;20469;-81
2023/06/21 08:25:54;;;;;;;26.35;23.75;;;24.60;95.10;;;;;;5032756;28;20067;-82
2023/06/21 08:28:21;;;;;;;26.65;24.02;;;24.60;94.80;;;;;;5032311;28;20137;-82
2023/06/21 08:30:47;;;;;;;26.75;24.02;;;24.40;94.90;;;;;;5032565;28;20026;-82
2023/06/21 08:33:12;;;;;;;26.35;23.52;;;24.50;95.00;;;;;;5032359;28;20040;-82
2023/06/21 08:35:38;;;;;;;25.08;22.52;;;24.50;94.90;;;;;;5030076;28;20043;-81
2023/06/21 08:38:03;;;;;;;25.20;22.80;;;24.50;95.10;;;;;;5031978;28;20470;-82
2023/06/21 08:40:31;;;;;;;26.80;24.10;;;24.60;94.80;;;;;;5031984;28;20064;-82
2023/06/21 08:42:58;;;;;;;24.90;22.50;;;24.80;94.90;;;;;;5033340;28;20036;-82
2023/06/21 08:45:24;;;;;;;20.08;18.15;;;24.90;95.10;;;;;;5032203;28;20105;-81
2023/06/21 08:47:53;;;;;;;22.67;20.35;;;25.00;94.20;;;;;;5031733;28;20032;-82
2023/06/21 08:50:20;;;;;;;22.33;19.75;;;25.20;93.80;;;;;;5015972;28;20113;-82
2023/06/21 08:52:48;;;;;;;18.67;16.88;;;25.30;93.20;;;;;;5033143;28;20037;-81
2023/06/21 08:55:16;;;;;;;19.83;17.83;;;25.30;93.20;;;;;;5033309;28;20029;-81
2023/06/21 08:57:48;;;;;;;18.00;16.27;;;25.10;93.10;;;;;;5022860;28;20466;-83
2023/06/21 09:00:19;;;;;;;17.77;15.85;;;25.10;93.30;;;;;;5013899;28;20065;-83
2023/06/21 09:02:52;;;;;;;18.60;16.90;;;25.20;93.20;;;;;;5013475;28;20025;-81
2023/06/21 09:05:35;;;;;;;16.77;15.23;;;25.20;93.70;;;;;;5022671;28;20803;-81
2023/06/21 09:08:02;;;;;;;15.30;13.77;;;25.20;93.80;;;;;;5029747;28;20028;-81
2023/06/21 09:10:28;;;;;;;16.10;14.50;;;25.20;93.10;;;;;;5032524;28;20470;-82
2023/06/21 09:12:59;;;;;;;13.45;12.15;;;25.30;92.70;;;;;;5033247;28;20060;-82
2023/06/21 09:15:26;;;;;;;13.80;12.10;;;25.40;92.50;;;;;;5015333;28;20022;-82
2023/06/21 09:17:55;;;;;;;10.23;9.32;;;25.40;92.20;;;;;;5013404;28;20026;-82
2023/06/21 09:20:27;;;;;;;13.50;12.20;;;25.60;92.20;;;;;;5013622;28;20046;-81
2023/06/21 09:22:54;;;;;;;12.15;11.02;;;25.70;91.70;;;;;;5024569;28;20065;-81
2023/06/21 09:25:20;;;;;;;12.50;11.20;;;25.80;91.70;;;;;;5032545;28;20040;-82
2023/06/21 09:27:46;;;;;;;12.65;11.45;;;26.00;91.80;;;;;;5012174;28;20374;-81
2023/06/21 09:30:13;;;;;;;10.82;9.77;;;26.10;91.50;;;;;;5013315;28;20325;-81
2023/06/21 09:32:39;;;;;;;9.85;8.85;;;26.20;91.80;;;;;;5013723;28;20393;-81
2023/06/21 09:35:05;;;;;;;9.40;8.52;;;26.30;91.00;;;;;;5013002;28;20030;-80
2023/06/21 09:37:33;;;;;;;8.05;6.65;;;26.40;90.70;;;;;;5016802;28;20117;-81
2023/06/21 09:39:59;;;;;;;5.70;5.20;;;26.40;89.40;;;;;;5012756;28;20050;-81
2023/06/21 09:42:26;;;;;;;5.38;4.70;;;26.40;88.80;;;;;;5014273;28;20052;-77
2023/06/21 09:44:52;;;;;;;5.82;4.85;;;26.40;88.40;;;;;;5015589;28;20086;-79
2023/06/21 09:47:18;;;;;;;6.88;5.20;;;26.50;88.60;;;;;;5012856;28;20034;-80
2023/06/21 09:49:48;;;;;;;6.07;4.10;;;26.50;88.90;;;;;;5014179;28;20377;-80
2023/06/21 09:52:14;;;;;;;7.00;4.25;;;26.50;88.70;;;;;;5014141;28;20053;-82
2023/06/21 09:54:44;;;;;;;4.35;3.83;;;26.60;88.40;;;;;;5019991;28;20042;-82
2023/06/21 09:57:09;;;;;;;3.58;3.20;;;26.70;87.00;;;;;;5001071;28;20037;-80
2023/06/21 09:59:39;;;;;;;3.95;3.10;;;26.80;87.00;;;;;;5000195;28;20385;-81
2023/06/21 10:02:06;;;;;;;5.40;3.15;;;26.90;86.70;;;;;;5018248;28;20029;-81
2023/06/21 10:04:43;;;;;;;3.67;2.75;;;27.00;85.90;;;;;;5034613;28;20037;-81
2023/06/21 10:07:12;;;;;;;4.40;4.00;;;27.10;86.50;;;;;;5034375;28;20033;-81
2023/06/21 10:09:38;;;;;;;4.85;4.40;;;27.00;85.00;;;;;;5037464;28;20446;-81
2023/06/21 10:12:11;;;;;;;6.05;4.18;;;26.90;85.10;;;;;;5036558;28;20046;-81
2023/06/21 10:14:39;;;;;;;3.58;3.13;;;26.80;85.20;;;;;;5037802;28;20034;-81
2023/06/21 10:17:05;;;;;;;3.70;3.35;;;26.80;84.20;;;;;;5038637;28;20436;-81
2023/06/21 10:19:31;;;;;;;5.05;3.08;;;26.90;82.90;;;;;;5040376;28;20057;-81
2023/06/21 10:22:11;;;;;;;3.08;2.80;;;27.00;80.80;;;;;;5038545;28;20034;-82
2023/06/21 10:24:40;;;;;;;4.32;3.42;;;26.90;81.10;;;;;;5038417;28;20030;-82
2023/06/21 10:27:06;;;;;;;4.68;3.10;;;27.00;82.00;;;;;;5038297;28;20030;-81
2023/06/21 10:29:34;;;;;;;3.13;2.17;;;27.10;82.20;;;;;;5036081;28;20033;-82
2023/06/21 10:32:01;;;;;;;5.30;2.45;;;27.30;81.40;;;;;;5036076;28;20091;-81
2023/06/21 10:34:39;;;;;;;3.05;2.22;;;27.40;80.10;;;;;;5037711;28;20173;-81
2023/06/21 10:37:14;;;;;;;2.88;2.60;;;27.50;79.50;;;;;;5038997;28;20036;-82
2023/06/21 10:39:40;;;;;;;4.28;2.42;;;27.60;78.30;;;;;;5040493;28;20033;-81
2023/06/21 10:42:07;;;;;;;3.03;2.72;;;27.60;78.70;;;;;;5039504;28;20025;-81
2023/06/21 10:44:34;;;;;;;2.83;2.47;;;27.70;77.10;;;;;;5035258;28;20025;-82
2023/06/21 10:47:01;;;;;;;4.22;2.22;;;27.70;76.50;;;;;;5036054;28;20033;-81
2023/06/21 10:49:28;;;;;;;3.78;2.25;;;27.50;76.60;;;;;;5037553;28;20030;-81
2023/06/21 10:51:55;;;;;;;2.78;2.58;;;27.50;76.80;;;;;;5036090;28;20113;-81
2023/06/21 10:54:22;;;;;;;3.65;2.40;;;27.50;76.50;;;;;;5022392;28;20439;-82
2023/06/21 10:56:50;;;;;;;3.33;2.08;;;27.60;75.30;;;;;;5034824;28;20050;-82
2023/06/21 10:59:17;;;;;;;4.57;2.28;;;27.50;74.60;;;;;;5033314;28;20052;-82
2023/06/21 11:01:43;;;;;;;3.75;2.17;;;27.60;74.00;;;;;;5028768;28;20036;-81
2023/06/21 11:04:09;;;;;;;5.07;2.63;;;27.70;74.50;;;;;;5033863;28;20029;-81
2023/06/21 11:06:37;;;;;;;3.50;1.83;;;27.70;74.00;;;;;;5014536;28;20025;-80
2023/06/21 11:09:09;;;;;;;3.20;2.08;;;27.80;73.50;;;;;;5024155;28;20477;-81
2023/06/21 11:11:40;;;;;;;4.75;2.17;;;27.80;72.90;;;;;;5040503;28;20051;-80
2023/06/21 11:14:06;;;;;;;4.45;3.30;;;27.80;72.60;;;;;;5035784;28;20186;-81
2023/06/21 11:16:34;;;;;;;7.07;3.05;;;27.70;72.00;;;;;;5032828;28;20056;-82
2023/06/21 11:19:08;;;;;;;4.47;2.53;;;27.80;73.30;;;;;;5031572;28;20036;-80
2023/06/21 11:21:49;;;;;;;4.60;2.30;;;27.90;73.20;;;;;;5026329;28;20037;-79
2023/06/21 11:24:20;;;;;;;5.78;2.00;;;27.90;72.80;;;;;;5031413;28;20076;-80
2023/06/21 11:26:57;;;;;;;3.42;2.20;;;28.00;73.00;;;;;;5031085;28;20052;-79
2023/06/21 11:29:25;;;;;;;3.70;2.47;;;28.10;72.20;;;;;;5030385;28;20045;-80
2023/06/21 11:32:26;;;;;;;3.72;2.28;;;28.10;71.80;;;;;;5024994;28;20043;-78
2023/06/21 11:34:56;;;;;;;2.72;2.53;;;28.20;71.40;;;;;;5044350;28;20112;-79
2023/06/21 11:37:44;;;;;;;6.93;3.05;;;28.20;71.50;;;;;;5022363;28;20389;-79
2023/06/21 11:40:15;;;;;;;6.25;2.95;;;28.30;71.40;;;;;;5017262;28;20042;-79
2023/06/21 11:42:48;;;;;;;5.43;2.80;;;28.30;71.40;;;;;;5031127;28;20033;-80
2023/06/21 11:45:22;;;;;;;3.00;2.17;;;28.40;72.80;;;;;;5025430;28;20069;-80
2023/06/21 11:48:12;;;;;;;2.97;2.13;;;28.50;72.20;;;;;;5020559;28;20025;-80
2023/06/21 11:50:43;;;;;;;6.13;2.35;;;28.50;70.50;;;;;;5026007;28;20395;-79
2023/06/21 11:53:28;;;;;;;10.60;3.10;;;28.60;70.20;;;;;;5015592;28;20079;-79
2023/06/21 11:55:56;;;;;;;3.63;2.58;;;28.50;69.90;;;;;;5029053;28;20026;-77
2023/06/21 11:58:23;;;;;;;3.65;1.90;;;28.40;69.40;;;;;;5041700;28;20037;-79
2023/06/21 12:00:49;;;;;;;2.17;1.55;;;28.40;69.30;;;;;;5019641;28;20033;-80
2023/06/21 12:03:15;;;;;;;2.80;1.88;;;28.40;69.40;;;;;;5049194;28;20487;-80
2023/06/21 12:05:55;;;;;;;2.85;1.73;;;28.40;68.70;;;;;;5032036;28;20033;-81
2023/06/21 12:08:28;;;;;;;2.90;2.00;;;28.40;68.00;;;;;;5033580;28;20068;-80
2023/06/21 12:11:14;;;;;;;5.75;1.70;;;28.30;68.40;;;;;;5024681;28;20120;-82
2023/06/21 12:13:41;;;;;;;3.05;1.80;;;28.40;69.00;;;;;;5022941;28;20053;-80
2023/06/21 12:16:07;;;;;;;2.70;1.27;;;28.40;68.40;;;;;;5017901;28;20030;-78
2023/06/21 12:18:36;;;;;;;3.30;1.60;;;28.50;69.50;;;;;;5025892;28;20044;-78
2023/06/21 12:21:04;;;;;;;3.60;1.70;;;28.60;69.50;;;;;;5030033;28;20544;-76
2023/06/21 12:23:30;;;;;;;3.13;1.50;;;28.60;69.10;;;;;;5023410;28;20491;-76
2023/06/21 12:26:04;;;;;;;2.10;1.40;;;28.50;68.10;;;;;;5019689;28;20028;-76
2023/06/21 12:28:31;;;;;;;3.38;1.45;;;28.50;68.20;;;;;;5032550;28;20469;-78
2023/06/21 12:31:01;;;;;;;2.10;1.23;;;28.50;68.10;;;;;;5026263;28;20014;-81
2023/06/21 12:33:56;;;;;;;2.75;1.50;;;28.40;68.70;;;;;;5015894;28;20053;-76
2023/06/21 12:36:29;;;;;;;2.47;1.30;;;28.30;67.90;;;;;;5032812;28;20040;-76
2023/06/21 12:38:58;;;;;;;4.75;1.70;;;28.30;68.20;;;;;;5033440;28;20029;-78
2023/06/21 12:41:26;;;;;;;2.40;1.30;;;28.40;67.40;;;;;;5032286;28;20099;-76
2023/06/21 12:44:13;;;;;;;3.83;1.20;;;28.40;68.30;;;;;;5017582;28;20037;-77